Time;durP1;ratioP1;P1;durP2;ratioP2;P2;SDS_P1;SDS_P2;PMS_P1;PMS_P2;Temp;Humidity;BMP_temperature;BMP_pressure;BME280_temperature;BME280_humidity;BME280_pressure;Samples;Min_cycle;Max_cycle;Signal;HPM_P1;HPM_P2
2022/04/14 00:00:20;;;;;;;9.50;8.70;;;;;;;7.69;100.00;96991.75;4968226;28;20442;-55
2022/04/14 00:02:48;;;;;;;10.00;9.10;;;;;;;7.68;100.00;96984.81;5004300;28;20307;-55
2022/04/14 00:05:16;;;;;;;9.27;8.37;;;;;;;7.66;100.00;96985.00;5002676;28;20403;-54
2022/04/14 00:07:44;;;;;;;8.87;8.17;;;;;;;7.68;100.00;96980.38;4992607;28;20220;-55
2022/04/14 00:10:12;;;;;;;9.33;8.40;;;;;;;7.73;100.00;96979.84;4993578;28;20208;-51
2022/04/14 00:12:41;;;;;;;9.60;8.70;;;;;;;7.71;100.00;96987.13;5011180;28;20228;-54
2022/04/14 00:15:11;;;;;;;9.37;8.30;;;;;;;7.70;100.00;96984.66;4967022;28;20672;-53
2022/04/14 00:17:40;;;;;;;8.30;7.60;;;;;;;7.72;100.00;96987.94;4989871;28;20212;-58
2022/04/14 00:20:10;;;;;;;9.20;8.47;;;;;;;7.71;100.00;96992.41;5004063;28;20305;-53
2022/04/14 00:22:38;;;;;;;9.27;8.50;;;;;;;7.78;100.00;96988.09;4990155;28;20225;-57
2022/04/14 00:25:07;;;;;;;8.03;7.33;;;;;;;7.78;100.00;96988.09;4991109;28;20314;-59
2022/04/14 00:27:35;;;;;;;9.43;8.53;;;;;;;7.80;100.00;96991.41;5005441;28;20697;-55
2022/04/14 00:30:04;;;;;;;8.67;7.97;;;;;;;7.79;100.00;96986.28;4959197;28;20669;-54
2022/04/14 00:32:32;;;;;;;9.53;8.77;;;;;;;7.71;100.00;96989.75;4990324;28;20243;-55
2022/04/14 00:35:01;;;;;;;9.03;8.13;;;;;;;7.66;100.00;96994.72;5007082;28;20211;-53
2022/04/14 00:37:29;;;;;;;8.90;8.20;;;;;;;7.60;100.00;96984.84;5005824;28;20210;-57
2022/04/14 00:39:57;;;;;;;9.20;8.40;;;;;;;7.55;100.00;96984.53;4973279;28;20228;-54
2022/04/14 00:42:25;;;;;;;9.07;8.27;;;;;;;7.45;100.00;96990.00;5003363;28;20225;-56
2022/04/14 00:44:54;;;;;;;9.00;7.63;;;;;;;7.37;100.00;96988.19;4985030;28;20204;-54
2022/04/14 00:47:22;;;;;;;8.53;7.73;;;;;;;7.32;100.00;96991.34;4993438;28;20213;-57
2022/04/14 00:49:50;;;;;;;9.57;8.50;;;;;;;7.30;100.00;96993.34;4988801;28;20677;-54
2022/04/14 00:52:22;;;;;;;8.63;7.93;;;;;;;7.19;100.00;96996.31;5001956;28;20815;-55
2022/04/14 00:54:50;;;;;;;8.63;7.83;;;;;;;7.13;100.00;96995.19;4971424;28;20208;-54
2022/04/14 00:57:18;;;;;;;9.37;8.67;;;;;;;7.05;100.00;96993.38;5007413;28;20411;-57
2022/04/14 00:59:46;;;;;;;7.43;6.77;;;;;;;7.04;100.00;96993.56;5003877;28;20213;-56
2022/04/14 01:02:14;;;;;;;8.97;8.17;;;;;;;6.98;100.00;96992.41;4965093;28;20307;-57
2022/04/14 01:04:43;;;;;;;8.30;7.57;;;;;;;6.92;100.00;96993.06;4987954;28;20763;-55
2022/04/14 01:07:11;;;;;;;10.07;8.10;;;;;;;6.85;100.00;97002.63;5001626;28;20704;-55
2022/04/14 01:09:40;;;;;;;7.93;7.40;;;;;;;6.84;100.00;96999.16;4987694;28;20220;-58
2022/04/14 01:12:15;;;;;;;8.43;7.60;;;;;;;6.87;100.00;96990.09;4989900;28;20660;-56
2022/04/14 01:15:42;;;;;;;8.20;7.60;;;;;;;6.87;100.00;96992.72;4974395;28;20303;-53
2022/04/14 01:18:10;;;;;;;12.13;10.93;;;;;;;6.82;100.00;96985.31;4980739;28;20212;-53
2022/04/14 01:20:41;;;;;;;12.47;10.43;;;;;;;6.89;100.00;96988.94;4980324;28;20791;-56
2022/04/14 01:23:11;;;;;;;10.60;9.60;;;;;;;6.98;100.00;96992.41;4917850;28;20692;-54
2022/04/14 01:25:40;;;;;;;9.97;9.07;;;;;;;6.99;100.00;96991.41;4985230;28;20296;-54
2022/04/14 01:28:09;;;;;;;10.55;9.63;;;;;;;7.00;100.00;96992.22;4953203;28;20475;-54
2022/04/14 01:30:37;;;;;;;9.53;8.73;;;;;;;7.02;100.00;96990.25;5006566;28;20240;-56
2022/04/14 01:33:05;;;;;;;8.67;7.83;;;;;;;7.06;100.00;96999.47;4952183;28;20239;-55
2022/04/14 01:35:34;;;;;;;9.73;8.87;;;;;;;7.12;100.00;96992.69;4956052;28;20363;-55
2022/04/14 01:38:02;;;;;;;9.80;9.00;;;;;;;7.17;100.00;96995.66;5000874;28;20618;-57
2022/04/14 01:40:30;;;;;;;9.57;8.77;;;;;;;7.09;100.00;96988.59;4972364;28;20397;-59
2022/04/14 01:43:00;;;;;;;9.07;8.37;;;;;;;7.14;100.00;96994.19;5001653;28;20648;-55
2022/04/14 01:45:29;;;;;;;9.03;8.00;;;;;;;7.12;100.00;96993.53;4978273;28;20713;-57
2022/04/14 01:47:57;;;;;;;9.63;8.60;;;;;;;7.10;100.00;96988.41;4954694;28;20642;-55
2022/04/14 01:50:26;;;;;;;9.80;9.00;;;;;;;7.00;100.00;96976.41;5003737;28;20239;-58
2022/04/14 01:52:54;;;;;;;9.03;8.23;;;;;;;7.08;100.00;96998.31;4987838;28;20912;-55
2022/04/14 01:55:22;;;;;;;8.87;8.07;;;;;;;7.04;100.00;96993.56;4980536;28;20228;-55
2022/04/14 01:57:50;;;;;;;9.10;8.37;;;;;;;6.93;100.00;96999.97;4982038;28;20708;-57
2022/04/14 02:00:20;;;;;;;9.97;9.07;;;;;;;6.87;100.00;96995.38;4975015;28;20332;-60
2022/04/14 02:02:48;;;;;;;9.60;8.73;;;;;;;6.83;100.00;97004.59;4926823;28;21065;-58
2022/04/14 02:05:16;;;;;;;9.67;8.80;;;;;;;6.83;100.00;97001.97;5007304;28;20208;-47
2022/04/14 02:07:44;;;;;;;9.43;8.53;;;;;;;6.86;100.00;96997.16;4975601;28;20220;-50
2022/04/14 02:10:14;;;;;;;9.53;8.63;;;;;;;6.83;100.00;97000.13;4981716;28;20691;-49
2022/04/14 02:12:45;;;;;;;9.37;8.63;;;;;;;6.82;100.00;96995.84;4983946;28;20517;-56
2022/04/14 02:15:13;;;;;;;9.20;8.40;;;;;;;6.77;100.00;96992.91;5008036;28;20730;-58
2022/04/14 02:17:43;;;;;;;9.73;8.77;;;;;;;6.70;100.00;96992.72;4928353;28;20402;-57
2022/04/14 02:20:12;;;;;;;9.67;8.77;;;;;;;6.59;100.00;96999.13;5003995;28;20303;-53
2022/04/14 02:22:40;;;;;;;10.07;9.13;;;;;;;6.50;100.00;97000.94;4977435;28;20334;-55
2022/04/14 02:25:10;;;;;;;9.47;8.73;;;;;;;6.55;100.00;97002.25;4979481;28;20697;-58
2022/04/14 02:27:38;;;;;;;9.63;8.60;;;;;;;6.41;100.00;96996.63;4983855;28;20659;-57
2022/04/14 02:30:08;;;;;;;10.10;9.23;;;;;;;6.45;100.00;97005.88;5007778;28;20843;-58
2022/04/14 02:32:40;;;;;;;10.33;9.43;;;;;;;6.28;100.00;97010.28;4939747;28;20224;-58
2022/04/14 02:35:10;;;;;;;10.57;9.57;;;;;;;6.21;100.00;97007.47;5002365;28;20747;-58
2022/04/14 02:37:38;;;;;;;10.77;9.67;;;;;;;6.20;100.00;97007.59;4976734;28;20211;-55
2022/04/14 02:40:07;;;;;;;11.03;9.93;;;;;;;6.12;100.00;97018.09;5004995;28;20303;-58
2022/04/14 02:42:35;;;;;;;9.53;8.73;;;;;;;5.95;100.00;97012.78;4978626;28;20228;-57
2022/04/14 02:45:04;;;;;;;10.43;9.50;;;;;;;5.97;100.00;97025.75;4985689;28;20385;-57
2022/04/14 02:47:34;;;;;;;10.00;9.10;;;;;;;6.01;100.00;97024.47;4978762;28;20724;-55
2022/04/14 02:50:04;;;;;;;9.27;8.47;;;;;;;5.92;100.00;97021.78;4954867;28;20209;-60
2022/04/14 02:52:33;;;;;;;10.23;9.37;;;;;;;5.82;100.00;97025.53;4980342;28;20293;-56
2022/04/14 02:55:02;;;;;;;9.50;8.70;;;;;;;5.70;100.00;97027.63;5007213;28;20230;-59
2022/04/14 02:57:30;;;;;;;9.03;8.33;;;;;;;5.64;100.00;97032.50;4976294;28;20218;-57
2022/04/14 02:59:58;;;;;;;10.33;8.97;;;;;;;5.65;100.00;97025.47;4991511;28;20338;-56
2022/04/14 03:02:26;;;;;;;14.63;13.07;;;;;;;5.66;100.00;97024.47;4978313;28;20242;-57
2022/04/14 03:04:55;;;;;;;12.77;11.57;;;;;;;5.60;100.00;97020.66;4957800;28;20664;-61
2022/04/14 03:07:23;;;;;;;11.67;10.47;;;;;;;5.65;100.00;97028.09;5006903;28;20213;-55
2022/04/14 03:09:53;;;;;;;12.95;11.80;;;;;;;5.60;100.00;97025.09;4984272;28;21013;-55
2022/04/14 03:12:21;;;;;;;10.87;9.90;;;;;;;5.62;100.00;97028.41;4985775;28;20245;-58
2022/04/14 03:14:49;;;;;;;9.73;8.83;;;;;;;5.57;100.00;97028.84;4955410;28;20857;-53
2022/04/14 03:17:19;;;;;;;10.70;9.70;;;;;;;5.52;100.00;97030.31;5003145;28;20259;-58
2022/04/14 03:19:47;;;;;;;11.00;10.00;;;;;;;5.47;100.00;97028.97;4927450;28;20824;-57
2022/04/14 03:22:15;;;;;;;13.45;12.30;;;;;;;5.45;100.00;97028.28;4993712;28;20521;-56
2022/04/14 03:24:43;;;;;;;11.87;10.67;;;;;;;5.46;100.00;97031.75;4975338;28;22014;-56
2022/04/14 03:27:12;;;;;;;10.67;9.67;;;;;;;5.46;100.00;97027.31;5003437;28;20210;-55
2022/04/14 03:29:41;;;;;;;16.07;14.83;;;;;;;5.49;100.00;97029.66;4959789;28;20268;-55
2022/04/14 03:32:09;;;;;;;19.87;17.80;;;;;;;5.49;100.00;97034.91;5000671;28;20232;-59
2022/04/14 03:34:38;;;;;;;17.90;16.20;;;;;;;5.44;100.00;97031.91;4952451;28;20595;-57
2022/04/14 03:37:06;;;;;;;13.47;12.27;;;;;;;5.41;100.00;97034.84;5004422;28;20205;-57
2022/04/14 03:39:34;;;;;;;12.30;11.10;;;;;;;5.37;100.00;97036.13;4984500;28;20208;-56
2022/04/14 03:42:03;;;;;;;11.30;10.40;;;;;;;5.32;100.00;97026.09;4997562;28;20204;-56
2022/04/14 03:44:33;;;;;;;11.30;10.40;;;;;;;5.30;100.00;97025.44;4966731;28;20220;-55
2022/04/14 03:47:01;;;;;;;11.63;10.63;;;;;;;5.27;100.00;97033.59;5000494;28;20755;-57
2022/04/14 03:49:30;;;;;;;11.30;10.30;;;;;;;5.26;100.00;97034.56;4973205;28;20409;-58
2022/04/14 03:51:58;;;;;;;11.43;10.33;;;;;;;5.25;100.00;97038.19;4967893;28;20719;-57
2022/04/14 03:54:26;;;;;;;11.17;10.07;;;;;;;5.17;100.00;97038.13;4965513;28;23176;-57
2022/04/14 03:56:55;;;;;;;11.57;10.60;;;;;;;5.13;100.00;97040.25;4981236;28;20592;-55
2022/04/14 03:59:23;;;;;;;12.07;10.87;;;;;;;5.11;100.00;97036.13;4978906;28;20267;-58
2022/04/14 04:01:53;;;;;;;10.47;9.67;;;;;;;5.13;100.00;97040.25;4979875;28;20323;-55
2022/04/14 04:04:21;;;;;;;11.57;10.63;;;;;;;5.15;100.00;97042.72;4996576;28;20580;-57
2022/04/14 04:06:49;;;;;;;11.33;10.17;;;;;;;5.13;100.00;97039.41;4951862;28;20216;-55
2022/04/14 04:09:17;;;;;;;11.67;10.43;;;;;;;5.17;100.00;97048.63;4996090;28;20772;-59
2022/04/14 04:11:45;;;;;;;11.27;10.20;;;;;;;5.14;100.00;97043.69;4976255;28;20645;-55
2022/04/14 04:14:13;;;;;;;12.03;10.83;;;;;;;5.07;100.00;97030.34;4969632;28;20227;-51
2022/04/14 04:16:41;;;;;;;11.63;10.30;;;;;;;5.19;100.00;97044.06;4976599;28;20345;-58
2022/04/14 04:19:11;;;;;;;10.83;9.77;;;;;;;5.24;100.00;97048.88;4999860;28;20304;-59
2022/04/14 04:21:39;;;;;;;10.77;9.83;;;;;;;5.19;100.00;97052.78;4954469;28;20223;-53
2022/04/14 04:24:07;;;;;;;11.77;10.77;;;;;;;5.23;100.00;97055.91;5000850;28;20729;-56
2022/04/14 04:26:35;;;;;;;12.80;11.60;;;;;;;5.24;100.00;97062.00;5000625;28;20204;-56
2022/04/14 04:29:04;;;;;;;12.93;11.70;;;;;;;5.20;100.00;97050.97;4959902;28;20803;-56
2022/04/14 04:31:32;;;;;;;12.50;11.33;;;;;;;5.31;100.00;97063.03;4983680;28;20221;-56
2022/04/14 04:34:00;;;;;;;12.20;11.10;;;;;;;5.34;100.00;97067.97;4998220;28;20235;-57
2022/04/14 04:36:30;;;;;;;16.50;12.30;;;;;;;5.36;100.00;97073.91;4954313;28;20216;-55
2022/04/14 04:39:01;;;;;;;14.17;12.70;;;;;;;5.52;100.00;97075.81;5002399;28;20639;-55
2022/04/14 04:41:30;;;;;;;11.63;10.73;;;;;;;5.49;100.00;97063.81;5000921;28;20204;-57
2022/04/14 04:43:58;;;;;;;11.70;10.80;;;;;;;5.48;100.00;97067.41;4975701;28;20816;-54
2022/04/14 04:46:26;;;;;;;11.57;10.53;;;;;;;5.52;100.00;97082.88;4953719;28;20804;-52
2022/04/14 04:48:54;;;;;;;11.27;10.27;;;;;;;5.61;100.00;97079.31;5005330;28;20216;-55
2022/04/14 04:51:22;;;;;;;13.20;10.33;;;;;;;5.67;100.00;97080.50;5005216;28;20381;-57
2022/04/14 04:53:53;;;;;;;11.30;10.30;;;;;;;5.63;100.00;97088.69;4949416;28;20676;-56
2022/04/14 04:56:21;;;;;;;11.70;10.70;;;;;;;5.54;100.00;97083.56;5002558;28;20213;-59
2022/04/14 04:58:49;;;;;;;11.50;10.40;;;;;;;5.57;100.00;97084.06;4986203;28;20215;-59
2022/04/14 05:01:17;;;;;;;12.43;11.30;;;;;;;5.57;100.00;97080.63;4986331;28;20941;-56
2022/04/14 05:03:45;;;;;;;13.07;11.70;;;;;;;5.65;100.00;97084.09;4987917;28;20227;-55
2022/04/14 05:06:13;;;;;;;11.80;10.80;;;;;;;5.69;100.00;97083.81;4995562;28;20296;-61
2022/04/14 05:08:41;;;;;;;13.17;11.43;;;;;;;5.70;100.00;97094.16;4957879;28;20877;-55
2022/04/14 05:11:11;;;;;;;12.87;11.63;;;;;;;5.75;100.00;97094.50;4995890;28;20532;-61
2022/04/14 05:13:39;;;;;;;12.47;11.07;;;;;;;5.80;100.00;97094.88;5002294;28;20343;-52
2022/04/14 05:16:09;;;;;;;12.77;11.47;;;;;;;5.91;100.00;97090.34;4984773;28;20224;-57
2022/04/14 05:18:37;;;;;;;11.57;10.40;;;;;;;6.02;100.00;97090.09;4988108;28;20217;-53
2022/04/14 05:21:05;;;;;;;12.83;10.60;;;;;;;6.11;100.00;97095.38;4997070;28;20965;-55
2022/04/14 05:23:33;;;;;;;12.67;11.53;;;;;;;6.28;100.00;97096.28;4966868;28;20236;-54
2022/04/14 05:26:01;;;;;;;11.67;10.67;;;;;;;6.31;100.00;97102.06;4984409;28;20219;-52
2022/04/14 05:28:31;;;;;;;11.47;10.47;;;;;;;6.41;100.00;97101.91;5005013;28;20210;-56
2022/04/14 05:31:00;;;;;;;11.00;10.10;;;;;;;6.51;100.00;97094.72;4995582;28;20207;-55
2022/04/14 05:33:28;;;;;;;12.57;11.37;;;;;;;6.53;100.00;97101.63;4985491;28;20476;-53
2022/04/14 05:35:56;;;;;;;13.27;12.07;;;;;;;6.63;100.00;97102.31;4997049;28;22186;-54
2022/04/14 05:38:24;;;;;;;11.50;10.23;;;;;;;6.76;100.00;97112.38;5001094;28;20852;-56
2022/04/14 05:40:53;;;;;;;10.83;9.73;;;;;;;6.85;100.00;97105.31;4934500;28;20918;-56
2022/04/14 05:43:24;;;;;;;11.00;9.93;;;;;;;7.04;100.00;97107.63;5006695;28;20543;-55
2022/04/14 05:45:55;;;;;;;11.20;10.20;;;;;;;7.23;100.00;97114.41;4978494;28;20410;-55
2022/04/14 05:48:24;;;;;;;10.93;9.93;;;;;;;7.37;100.00;97114.72;4975376;28;20213;-58
2022/04/14 05:50:52;;;;;;;10.93;9.73;;;;;;;7.41;100.00;97113.44;5001105;28;20865;-55
2022/04/14 05:53:26;;;;;;;10.57;9.63;;;;;;;7.48;100.00;97111.78;5003886;28;20248;-54
2022/04/14 05:55:55;;;;;;;10.90;9.90;;;;;;;7.67;100.00;97112.41;4961365;28;20220;-54
2022/04/14 05:58:23;;;;;;;10.67;9.67;;;;;;;7.71;100.00;97112.91;4993871;28;20204;-56
2022/04/14 06:00:52;;;;;;;10.70;9.70;;;;;;;7.79;100.00;97108.44;4981297;28;20408;-51
2022/04/14 06:03:21;;;;;;;10.87;9.97;;;;;;;7.82;100.00;97112.53;4977817;28;20228;-55
2022/04/14 06:05:49;;;;;;;11.20;9.57;;;;;;;7.92;100.00;97102.63;4999565;28;20315;-54
2022/04/14 06:08:18;;;;;;;11.00;9.93;;;;;;;8.04;100.00;97107.56;5001933;28;20239;-56
2022/04/14 06:10:46;;;;;;;11.40;10.33;;;;;;;8.15;100.00;97107.19;4963403;28;20537;-53
2022/04/14 06:13:14;;;;;;;11.33;10.30;;;;;;;8.28;100.00;97104.00;4990343;28;20224;-57
2022/04/14 06:15:43;;;;;;;10.73;9.70;;;;;;;8.32;100.00;97094.72;4993370;28;20747;-53
2022/04/14 06:18:12;;;;;;;11.13;10.13;;;;;;;8.50;100.00;97113.00;4983170;28;20247;-58
2022/04/14 06:20:41;;;;;;;11.70;10.50;;;;;;;8.63;100.00;97101.88;4986130;28;20208;-58
2022/04/14 06:23:10;;;;;;;11.50;10.50;;;;;;;8.83;100.00;97112.84;4999138;28;20422;-58
2022/04/14 06:25:38;;;;;;;12.53;10.17;;;;;;;9.09;100.00;97105.56;4982476;28;20204;-58
2022/04/14 06:28:08;;;;;;;11.67;10.47;;;;;;;9.40;100.00;97109.94;4983979;28;20208;-52
2022/04/14 06:30:36;;;;;;;10.93;10.03;;;;;;;9.60;100.00;97115.56;4987860;28;20809;-54
2022/04/14 06:33:05;;;;;;;10.60;9.47;;;;;;;9.85;100.00;97102.09;4986087;28;20532;-58
2022/04/14 06:35:34;;;;;;;11.47;9.37;;;;;;;10.47;100.00;97101.94;4978854;28;20591;-54
2022/04/14 06:38:04;;;;;;;9.70;8.90;;;;;;;11.26;100.00;97114.38;4996738;28;20204;-53
2022/04/14 06:40:32;;;;;;;9.77;8.77;;;;;;;12.50;100.00;97110.53;5002288;28;20315;-55
2022/04/14 06:43:01;;;;;;;8.73;8.03;;;;;;;13.82;100.00;97112.81;4967283;28;20405;-58
2022/04/14 06:45:31;;;;;;;9.53;8.27;;;;;;;14.46;100.00;97109.63;4982200;28;20260;-55
2022/04/14 06:48:00;;;;;;;9.80;8.83;;;;;;;15.31;100.00;97107.75;4979058;28;20877;-57
2022/04/14 06:50:28;;;;;;;8.93;8.10;;;;;;;15.51;100.00;97115.63;4987922;28;20935;-57
2022/04/14 06:52:56;;;;;;;8.63;7.90;;;;;;;15.82;100.00;97115.78;4985908;28;20220;-54
2022/04/14 06:55:26;;;;;;;8.50;7.73;;;;;;;16.57;100.00;97111.34;5002215;28;20233;-56
2022/04/14 06:57:56;;;;;;;9.07;8.23;;;;;;;16.53;100.00;97112.84;4958923;28;20201;-54
2022/04/14 07:00:25;;;;;;;8.47;7.70;;;;;;;16.40;100.00;97121.81;4986151;28;20223;-60
2022/04/14 07:02:54;;;;;;;8.27;7.53;;;;;;;15.15;100.00;97122.44;4998957;28;20981;-55
2022/04/14 07:05:23;;;;;;;8.33;7.67;;;;;;;14.20;100.00;97114.00;4980049;28;20300;-55
2022/04/14 07:07:52;;;;;;;8.70;7.90;;;;;;;13.72;100.00;97129.22;4987142;28;20287;-55
2022/04/14 07:10:20;;;;;;;11.57;9.27;;;;;;;13.56;100.00;97119.81;5005639;28;20212;-52
2022/04/14 07:12:49;;;;;;;8.13;7.43;;;;;;;13.21;100.00;97124.44;4960698;28;20235;-57
2022/04/14 07:15:17;;;;;;;9.17;8.37;;;;;;;13.20;100.00;97133.44;4990049;28;20554;-57
2022/04/14 07:17:46;;;;;;;8.60;7.90;;;;;;;13.28;100.00;97125.28;4995208;28;20219;-57
2022/04/14 07:20:14;;;;;;;9.07;7.80;;;;;;;13.32;100.00;97126.53;4984694;28;20504;-53
2022/04/14 07:22:43;;;;;;;8.50;7.80;;;;;;;13.50;100.00;97130.44;4990116;28;20796;-56
2022/04/14 07:25:11;;;;;;;8.47;7.80;;;;;;;13.61;100.00;97127.16;5005258;28;20219;-56
2022/04/14 07:27:40;;;;;;;7.70;7.03;;;;;;;13.53;100.00;97136.19;4985915;28;20204;-56
2022/04/14 07:30:10;;;;;;;9.63;7.63;;;;;;;13.70;100.00;97133.94;4989137;28;20397;-57
2022/04/14 07:32:39;;;;;;;9.83;8.33;;;;;;;13.66;100.00;97131.88;4990332;28;20235;-54
2022/04/14 07:35:08;;;;;;;9.00;8.20;;;;;;;13.84;100.00;97125.94;5000562;28;20196;-55
2022/04/14 07:37:37;;;;;;;9.27;8.37;;;;;;;13.71;100.00;97132.91;4986031;28;20478;-56
2022/04/14 07:40:07;;;;;;;9.57;7.77;;;;;;;13.67;100.00;97125.53;5003464;28;20316;-57
2022/04/14 07:42:36;;;;;;;8.50;7.50;;;;;;;14.09;100.00;97125.28;5007878;28;20423;-55
2022/04/14 07:45:06;;;;;;;9.97;7.23;;;;;;;14.26;100.00;97115.00;4963485;28;20312;-52
2022/04/14 07:47:41;;;;;;;7.87;7.07;;;;;;;14.32;100.00;97117.63;4989933;28;20204;-54
2022/04/14 07:50:10;;;;;;;8.30;7.60;;;;;;;14.68;100.00;97123.47;5006257;28;20200;-56
2022/04/14 07:52:49;;;;;;;8.37;7.77;;;;;;;14.68;100.00;97120.81;4985421;28;20227;-55
2022/04/14 07:55:21;;;;;;;8.73;7.87;;;;;;;14.74;100.00;97124.47;5007445;28;20576;-55
2022/04/14 07:57:50;;;;;;;8.43;7.63;;;;;;;14.90;100.00;97123.19;5005018;28;20316;-58
2022/04/14 08:00:19;;;;;;;9.30;7.53;;;;;;;15.08;100.00;97127.81;4965908;28;20259;-56
2022/04/14 08:02:50;;;;;;;7.90;7.13;;;;;;;15.23;100.00;97127.50;4988430;28;20224;-57
2022/04/14 08:05:18;;;;;;;7.60;7.10;;;;;;;15.40;100.00;97124.34;5008102;28;20291;-56
2022/04/14 08:07:46;;;;;;;7.47;6.77;;;;;;;15.49;100.00;97117.69;4985271;28;20200;-58
2022/04/14 08:10:14;;;;;;;7.83;6.67;;;;;;;15.50;100.00;97122.00;5006526;28;20681;-56
2022/04/14 08:12:42;;;;;;;7.43;6.83;;;;;;;15.80;100.00;97126.69;5002410;28;20358;-56
2022/04/14 08:15:12;;;;;;;7.60;6.87;;;;;;;16.11;94.82;97133.03;4968629;28;20432;-55
2022/04/14 08:17:41;;;;;;;7.53;6.90;;;;;;;16.27;93.39;97134.28;4988245;28;20224;-57
2022/04/14 08:20:13;;;;;;;7.23;6.63;;;;;;;16.60;92.99;97127.75;5004422;28;20893;-59
2022/04/14 08:22:49;;;;;;;7.43;6.73;;;;;;;16.75;83.94;97126.56;5005767;28;20238;-53
2022/04/14 08:25:19;;;;;;;7.97;7.17;;;;;;;17.10;82.79;97127.75;4983462;28;20223;-52
2022/04/14 08:27:47;;;;;;;8.03;7.33;;;;;;;17.25;78.08;97130.03;5001060;28;20689;-55
2022/04/14 08:30:16;;;;;;;7.00;6.30;;;;;;;17.32;78.64;97133.41;5008701;28;20228;-54
2022/04/14 08:32:46;;;;;;;6.43;5.93;;;;;;;17.73;76.24;97133.63;4951370;28;20256;-55
2022/04/14 08:35:16;;;;;;;6.70;6.17;;;;;;;17.89;66.16;97142.84;5002163;28;20553;-56
2022/04/14 08:37:45;;;;;;;7.40;6.60;;;;;;;17.84;67.83;97134.69;5003085;28;20542;-57
2022/04/14 08:40:15;;;;;;;7.37;6.70;;;;;;;17.79;67.74;97135.38;4986561;28;20228;-56
2022/04/14 08:42:50;;;;;;;11.37;6.70;;;;;;;17.66;66.65;97141.75;5001675;28;20336;-57
2022/04/14 08:45:20;;;;;;;7.50;6.77;;;;;;;17.99;64.46;97134.22;5001731;28;20420;-56
2022/04/14 08:47:50;;;;;;;7.17;6.60;;;;;;;18.20;62.11;97127.50;4953201;28;20357;-58
2022/04/14 08:50:20;;;;;;;9.00;6.50;;;;;;;18.35;58.80;97125.16;4997942;28;20665;-55
2022/04/14 08:52:49;;;;;;;7.43;6.80;;;;;;;18.68;55.19;97130.09;5003248;28;21225;-57
2022/04/14 08:55:17;;;;;;;7.20;6.50;;;;;;;18.67;54.00;97126.59;4985362;28;20234;-55
2022/04/14 08:57:46;;;;;;;7.20;6.37;;;;;;;18.50;59.15;97130.00;5005489;28;20251;-57
2022/04/14 09:00:17;;;;;;;8.17;6.20;;;;;;;18.90;59.06;97132.94;5006345;28;20311;-57
2022/04/14 09:02:50;;;;;;;7.53;6.93;;;;;;;18.79;59.71;97124.69;4976734;28;20231;-58
2022/04/14 09:05:20;;;;;;;8.63;7.83;;;;;;;18.64;56.14;97132.44;5000365;28;20496;-53
2022/04/14 09:07:49;;;;;;;8.67;7.97;;;;;;;18.26;58.42;97142.66;5005188;28;20246;-55
2022/04/14 09:10:18;;;;;;;9.40;8.50;;;;;;;18.47;55.76;97143.06;4976746;28;20200;-55
2022/04/14 09:12:47;;;;;;;10.33;9.47;;;;;;;18.54;57.70;97146.44;4999499;28;20232;-53
2022/04/14 09:15:16;;;;;;;10.00;9.20;;;;;;;18.92;57.63;97137.00;4999855;28;20219;-55
2022/04/14 09:17:45;;;;;;;11.50;9.27;;;;;;;17.86;61.64;97146.81;5005847;28;20720;-50
2022/04/14 09:20:36;;;;;;;10.50;8.47;;;;;;;17.79;64.80;97156.81;4962211;28;20307;-57
2022/04/14 09:23:18;;;;;;;8.93;8.23;;;;;;;17.84;62.16;97142.75;5002069;28;20456;-56
2022/04/14 09:25:47;;;;;;;10.33;9.27;;;;;;;18.15;61.42;97148.81;4986304;28;20214;-56
2022/04/14 09:28:16;;;;;;;10.03;8.47;;;;;;;17.99;62.91;97143.09;5003649;28;20212;-55
2022/04/14 09:31:02;;;;;;;9.57;8.63;;;;;;;18.23;62.42;97146.59;5004355;28;20217;-53
2022/04/14 09:33:31;;;;;;;9.33;8.53;;;;;;;18.17;61.53;97139.50;5002991;28;20425;-57
2022/04/14 09:36:15;;;;;;;9.10;8.20;;;;;;;18.16;63.63;97140.56;4961365;28;20750;-55
2022/04/14 09:38:53;;;;;;;8.07;7.30;;;;;;;18.48;60.16;97137.50;5002246;28;20469;-53
2022/04/14 09:41:35;;;;;;;14.03;9.03;;;;;;;18.16;67.00;97137.88;4978066;28;20208;-52
2022/04/14 09:44:06;;;;;;;15.87;7.40;;;;;;;18.51;58.82;97134.34;5002509;28;20224;-54
2022/04/14 09:46:34;;;;;;;8.43;7.63;;;;;;;18.41;59.13;97135.97;4996942;28;20221;-52
2022/04/14 09:49:10;;;;;;;7.27;6.70;;;;;;;18.33;61.36;97137.13;5004308;28;20215;-55
2022/04/14 09:51:40;;;;;;;10.43;7.93;;;;;;;18.41;62.38;97141.34;4961442;28;20216;-53
2022/04/14 09:54:12;;;;;;;8.97;8.27;;;;;;;18.61;62.83;97135.59;5001653;28;20315;-53
2022/04/14 09:56:45;;;;;;;8.57;7.83;;;;;;;19.07;60.05;97133.81;5007365;28;20584;-54
2022/04/14 09:59:15;;;;;;;8.53;7.77;;;;;;;19.01;57.02;97128.63;4979011;28;20259;-56
2022/04/14 10:01:43;;;;;;;9.10;8.10;;;;;;;19.06;60.52;97148.31;5007452;28;20240;-51
2022/04/14 10:04:31;;;;;;;7.97;7.37;;;;;;;19.37;57.01;97154.25;5000321;28;20408;-54
2022/04/14 10:07:09;;;;;;;8.60;7.90;;;;;;;19.56;59.84;97151.34;4961468;28;20215;-55
2022/04/14 10:09:39;;;;;;;8.47;7.60;;;;;;;19.85;58.46;97150.47;5000618;28;20626;-53
2022/04/14 10:12:29;;;;;;;9.43;8.53;;;;;;;19.70;57.45;97156.41;4991185;28;20256;-55
2022/04/14 10:15:02;;;;;;;10.93;10.03;;;;;;;19.41;59.25;97148.38;5005314;28;20321;-54
2022/04/14 10:17:32;;;;;;;9.07;8.17;;;;;;;19.33;63.08;97150.41;5004049;28;20220;-50
2022/04/14 10:20:03;;;;;;;10.40;8.27;;;;;;;19.56;61.56;97131.72;4995224;28;20291;-56
2022/04/14 10:22:33;;;;;;;8.40;7.80;;;;;;;19.36;60.80;97152.63;4985394;28;20232;-51
2022/04/14 10:25:02;;;;;;;8.73;7.93;;;;;;;19.48;62.08;97149.88;5004113;28;21036;-52
2022/04/14 10:27:31;;;;;;;10.73;8.00;;;;;;;19.49;61.42;97143.44;4998766;28;20318;-55
2022/04/14 10:30:00;;;;;;;8.93;8.13;;;;;;;19.78;61.85;97142.56;4979940;28;20236;-55
2022/04/14 10:32:28;;;;;;;8.63;7.83;;;;;;;19.69;60.60;97144.81;5002734;28;20423;-54
2022/04/14 10:34:57;;;;;;;8.60;7.90;;;;;;;19.38;62.39;97144.31;5001914;28;20243;-50
2022/04/14 10:37:29;;;;;;;9.47;8.10;;;;;;;19.41;61.02;97140.31;4969687;28;20394;-53
2022/04/14 10:39:59;;;;;;;8.20;7.40;;;;;;;19.39;63.61;97148.66;5003036;28;20296;-54
2022/04/14 10:42:29;;;;;;;8.43;7.60;;;;;;;19.45;61.62;97142.28;5003856;28;20224;-53
2022/04/14 10:44:57;;;;;;;9.40;8.23;;;;;;;19.79;64.90;97153.06;4979566;28;20302;-54
2022/04/14 10:47:50;;;;;;;8.83;8.17;;;;;;;19.60;59.58;97147.13;4997061;28;20492;-58
2022/04/14 10:50:20;;;;;;;9.10;8.40;;;;;;;19.30;61.32;97142.84;5003376;28;20362;-53
2022/04/14 10:53:05;;;;;;;7.67;6.97;;;;;;;19.65;63.69;97139.13;4962760;28;20720;-55
2022/04/14 10:55:45;;;;;;;7.60;7.00;;;;;;;19.99;58.76;97142.91;5002077;28;20697;-51
2022/04/14 10:58:55;;;;;;;7.33;6.63;;;;;;;19.73;57.32;97146.00;5000179;28;20311;-54
2022/04/14 11:01:59;;;;;;;8.77;7.90;;;;;;;19.65;55.63;97147.19;4950980;28;20268;-51
2022/04/14 11:04:32;;;;;;;6.80;6.20;;;;;;;19.73;55.47;97147.84;4979507;28;20419;-54
2022/04/14 11:07:02;;;;;;;6.87;6.13;;;;;;;19.83;54.96;97144.53;4936761;28;20236;-52
2022/04/14 11:09:50;;;;;;;9.03;6.87;;;;;;;19.95;56.71;97145.28;4976916;28;20392;-53
2022/04/14 11:12:22;;;;;;;8.00;7.07;;;;;;;20.09;55.68;97145.75;4978996;28;20320;-55
2022/04/14 11:14:53;;;;;;;7.67;7.10;;;;;;;20.11;52.79;97151.69;4986239;28;20782;-52
2022/04/14 11:17:48;;;;;;;6.97;6.57;;;;;;;20.29;52.50;97144.44;4961133;28;20209;-56
2022/04/14 11:20:18;;;;;;;7.73;7.03;;;;;;;20.37;52.21;97144.78;4981209;28;20427;-56
2022/04/14 11:23:06;;;;;;;7.57;6.87;;;;;;;20.58;50.99;97145.06;4945443;28;20244;-55
2022/04/14 11:25:44;;;;;;;7.30;6.67;;;;;;;20.74;52.33;97143.38;4980809;28;21007;-56
2022/04/14 11:28:22;;;;;;;7.30;6.67;;;;;;;20.88;50.89;97133.09;4979501;28;20236;-56
2022/04/14 11:30:57;;;;;;;7.43;6.80;;;;;;;21.08;51.12;97134.38;4981829;28;20782;-55
2022/04/14 11:33:34;;;;;;;7.70;6.90;;;;;;;20.96;49.80;97129.13;4964550;28;20331;-54
2022/04/14 11:36:11;;;;;;;7.03;6.43;;;;;;;21.11;51.21;97133.84;4987379;28;20208;-52
2022/04/14 11:38:56;;;;;;;7.13;6.60;;;;;;;21.29;47.68;97137.28;4968118;28;20720;-51
2022/04/14 11:41:39;;;;;;;7.40;6.80;;;;;;;21.38;48.05;97124.97;5005818;28;20927;-54